sensor_id;sensor_type;location;lat;lon;timestamp;pressure;altitude;pressure_sealevel;temperature;humidity
67377;BME280;54261;46.086;6.588;2024-02-21T00:04:00;93425.03;;;6.09;39.04
67377;BME280;54261;46.086;6.588;2024-02-21T00:09:02;93411.41;;;6.27;38.38
67377;BME280;54261;46.086;6.588;2024-02-21T00:14:04;93406.34;;;6.20;38.59
67377;BME280;54261;46.086;6.588;2024-02-21T00:19:06;93408.50;;;6.18;38.16
67377;BME280;54261;46.086;6.588;2024-02-21T00:24:08;93400.50;;;5.97;39.25
67377;BME280;54261;46.086;6.588;2024-02-21T00:29:10;93417.56;;;6.22;38.66
67377;BME280;54261;46.086;6.588;2024-02-21T00:34:12;93424.22;;;5.93;39.34
67377;BME280;54261;46.086;6.588;2024-02-21T00:39:15;93406.09;;;6.11;39.01
67377;BME280;54261;46.086;6.588;2024-02-21T00:44:16;93397.59;;;6.19;39.35
67377;BME280;54261;46.086;6.588;2024-02-21T00:49:19;93377.31;;;5.87;39.56
67377;BME280;54261;46.086;6.588;2024-02-21T00:54:21;93382.38;;;5.99;39.17
67377;BME280;54261;46.086;6.588;2024-02-21T00:59:23;93341.88;;;5.87;38.79
67377;BME280;54261;46.086;6.588;2024-02-21T01:04:25;93366.13;;;6.01;39.30
67377;BME280;54261;46.086;6.588;2024-02-21T01:09:27;93370.13;;;6.14;39.68
67377;BME280;54261;46.086;6.588;2024-02-21T01:14:29;93358.69;;;5.92;39.82
67377;BME280;54261;46.086;6.588;2024-02-21T01:19:30;93355.19;;;5.81;40.49
67377;BME280;54261;46.086;6.588;2024-02-21T01:24:33;93342.41;;;6.04;39.89
67377;BME280;54261;46.086;6.588;2024-02-21T01:29:36;93330.97;;;5.83;39.75
67377;BME280;54261;46.086;6.588;2024-02-21T01:34:38;93305.31;;;6.29;39.59
67377;BME280;54261;46.086;6.588;2024-02-21T01:39:40;93314.94;;;6.24;39.58
67377;BME280;54261;46.086;6.588;2024-02-21T01:44:42;93309.63;;;5.57;39.75
67377;BME280;54261;46.086;6.588;2024-02-21T01:49:44;93307.19;;;5.30;40.58
67377;BME280;54261;46.086;6.588;2024-02-21T01:54:47;93295.53;;;5.82;40.33
67377;BME280;54261;46.086;6.588;2024-02-21T01:59:49;93286.19;;;6.06;39.63
67377;BME280;54261;46.086;6.588;2024-02-21T02:04:51;93275.78;;;5.37;40.24
67377;BME280;54261;46.086;6.588;2024-02-21T02:09:54;93197.53;;;5.59;39.64
67377;BME280;54261;46.086;6.588;2024-02-21T02:15:00;93274.78;;;6.71;38.52
67377;BME280;54261;46.086;6.588;2024-02-21T02:20:02;93266.41;;;6.28;39.43
67377;BME280;54261;46.086;6.588;2024-02-21T02:25:05;93268.78;;;6.34;38.43
67377;BME280;54261;46.086;6.588;2024-02-21T02:30:08;93263.84;;;5.65;39.03
67377;BME280;54261;46.086;6.588;2024-02-21T02:35:10;93238.25;;;5.69;39.18
67377;BME280;54261;46.086;6.588;2024-02-21T02:40:12;93225.75;;;5.75;39.54
67377;BME280;54261;46.086;6.588;2024-02-21T02:45:15;93242.53;;;5.55;39.46
67377;BME280;54261;46.086;6.588;2024-02-21T02:50:17;93250.53;;;5.65;39.00
67377;BME280;54261;46.086;6.588;2024-02-21T02:55:19;93226.56;;;5.45;39.58
67377;BME280;54261;46.086;6.588;2024-02-21T03:00:21;93222.81;;;5.25;39.63
67377;BME280;54261;46.086;6.588;2024-02-21T03:05:23;93212.47;;;5.44;39.76
67377;BME280;54261;46.086;6.588;2024-02-21T03:10:25;93218.03;;;5.27;40.50
67377;BME280;54261;46.086;6.588;2024-02-21T03:15:27;93214.03;;;5.04;40.45
67377;BME280;54261;46.086;6.588;2024-02-21T03:20:29;93206.06;;;5.50;39.85
67377;BME280;54261;46.086;6.588;2024-02-21T03:25:31;93203.38;;;5.76;39.83
67377;BME280;54261;46.086;6.588;2024-02-21T03:30:33;93204.44;;;5.75;39.26
67377;BME280;54261;46.086;6.588;2024-02-21T03:35:35;93176.91;;;6.01;39.09
67377;BME280;54261;46.086;6.588;2024-02-21T03:40:37;93193.22;;;5.78;38.65
67377;BME280;54261;46.086;6.588;2024-02-21T03:45:39;93194.28;;;5.88;39.00
67377;BME280;54261;46.086;6.588;2024-02-21T03:50:41;93179.38;;;5.81;39.12
67377;BME280;54261;46.086;6.588;2024-02-21T03:55:43;93168.94;;;6.01;38.15
67377;BME280;54261;46.086;6.588;2024-02-21T04:00:46;93165.94;;;6.18;38.08
67377;BME280;54261;46.086;6.588;2024-02-21T04:05:48;93166.69;;;6.34;37.98
67377;BME280;54261;46.086;6.588;2024-02-21T04:10:50;93162.41;;;6.33;37.49
67377;BME280;54261;46.086;6.588;2024-02-21T04:15:52;93170.69;;;6.31;37.73
67377;BME280;54261;46.086;6.588;2024-02-21T04:20:53;93172.88;;;6.19;37.70
67377;BME280;54261;46.086;6.588;2024-02-21T04:25:55;93165.91;;;6.28;37.52
67377;BME280;54261;46.086;6.588;2024-02-21T04:30:57;93176.84;;;6.21;37.63
67377;BME280;54261;46.086;6.588;2024-02-21T04:35:59;93180.59;;;6.20;37.39
67377;BME280;54261;46.086;6.588;2024-02-21T04:41:02;93193.94;;;6.20;37.21
67377;BME280;54261;46.086;6.588;2024-02-21T04:46:04;93190.16;;;6.27;37.61
67377;BME280;54261;46.086;6.588;2024-02-21T04:51:06;93180.03;;;6.23;37.24
67377;BME280;54261;46.086;6.588;2024-02-21T04:56:08;93152.31;;;6.24;37.34
67377;BME280;54261;46.086;6.588;2024-02-21T05:01:10;93116.34;;;5.30;38.67
67377;BME280;54261;46.086;6.588;2024-02-21T05:06:12;93127.28;;;5.03;38.82
67377;BME280;54261;46.086;6.588;2024-02-21T05:11:14;93127.28;;;5.08;39.81
67377;BME280;54261;46.086;6.588;2024-02-21T05:16:16;93127.53;;;5.27;39.54
67377;BME280;54261;46.086;6.588;2024-02-21T05:21:18;93116.63;;;4.97;38.87
67377;BME280;54261;46.086;6.588;2024-02-21T05:26:25;93115.28;;;5.05;39.80
67377;BME280;54261;46.086;6.588;2024-02-21T05:31:54;93114.50;;;5.15;39.07
67377;BME280;54261;46.086;6.588;2024-02-21T05:36:57;93112.06;;;5.45;38.73
67377;BME280;54261;46.086;6.588;2024-02-21T05:42:01;93097.22;;;5.07;39.24
67377;BME280;54261;46.086;6.588;2024-02-21T05:47:03;93091.88;;;5.12;39.31
67377;BME280;54261;46.086;6.588;2024-02-21T05:52:05;93106.25;;;4.96;39.16
67377;BME280;54261;46.086;6.588;2024-02-21T05:57:08;93103.34;;;5.03;39.50
67377;BME280;54261;46.086;6.588;2024-02-21T06:02:10;93104.09;;;5.19;39.12
67377;BME280;54261;46.086;6.588;2024-02-21T06:07:12;93108.34;;;5.51;38.77
67377;BME280;54261;46.086;6.588;2024-02-21T06:12:14;93112.78;;;5.76;38.89
67377;BME280;54261;46.086;6.588;2024-02-21T06:17:16;93115.22;;;5.67;38.27
67377;BME280;54261;46.086;6.588;2024-02-21T06:22:18;93116.31;;;5.56;38.32
67377;BME280;54261;46.086;6.588;2024-02-21T06:27:20;93130.47;;;5.31;38.86
67377;BME280;54261;46.086;6.588;2024-02-21T06:32:22;93119.78;;;5.62;38.17
67377;BME280;54261;46.086;6.588;2024-02-21T06:37:23;93123.13;;;5.88;38.07
67377;BME280;54261;46.086;6.588;2024-02-21T06:42:26;93128.72;;;5.97;37.82
67377;BME280;54261;46.086;6.588;2024-02-21T06:47:28;93146.50;;;6.12;38.19
67377;BME280;54261;46.086;6.588;2024-02-21T06:52:30;93152.34;;;6.14;37.34
67377;BME280;54261;46.086;6.588;2024-02-21T06:57:32;93164.56;;;6.31;38.35
67377;BME280;54261;46.086;6.588;2024-02-21T07:02:34;93149.69;;;6.19;37.73
67377;BME280;54261;46.086;6.588;2024-02-21T07:07:36;93158.69;;;6.29;37.67
67377;BME280;54261;46.086;6.588;2024-02-21T07:12:38;93162.69;;;6.31;38.06
67377;BME280;54261;46.086;6.588;2024-02-21T07:17:43;93157.56;;;6.40;37.51
67377;BME280;54261;46.086;6.588;2024-02-21T07:22:45;93164.91;;;6.14;37.95
67377;BME280;54261;46.086;6.588;2024-02-21T07:27:48;93160.66;;;6.02;38.53
67377;BME280;54261;46.086;6.588;2024-02-21T07:32:50;93135.34;;;6.00;38.70
67377;BME280;54261;46.086;6.588;2024-02-21T07:37:52;93137.13;;;6.20;38.23
67377;BME280;54261;46.086;6.588;2024-02-21T07:42:54;93140.16;;;5.97;38.70
67377;BME280;54261;46.086;6.588;2024-02-21T07:47:56;93144.50;;;5.73;39.81
67377;BME280;54261;46.086;6.588;2024-02-21T07:52:58;93141.88;;;5.57;39.97
67377;BME280;54261;46.086;6.588;2024-02-21T07:58:00;93142.34;;;5.90;39.92
67377;BME280;54261;46.086;6.588;2024-02-21T08:03:02;93117.78;;;6.04;39.26
67377;BME280;54261;46.086;6.588;2024-02-21T08:08:04;93064.13;;;6.16;39.14
67377;BME280;54261;46.086;6.588;2024-02-21T08:13:07;93130.97;;;6.80;39.16
67377;BME280;54261;46.086;6.588;2024-02-21T08:18:09;93119.22;;;7.16;38.04
67377;BME280;54261;46.086;6.588;2024-02-21T08:23:11;93134.41;;;7.50;38.79
67377;BME280;54261;46.086;6.588;2024-02-21T08:28:13;93135.41;;;5.89;40.24
67377;BME280;54261;46.086;6.588;2024-02-21T08:33:15;93129.06;;;6.86;38.78
67377;BME280;54261;46.086;6.588;2024-02-21T08:38:18;93123.84;;;6.65;39.40
67377;BME280;54261;46.086;6.588;2024-02-21T08:43:20;93131.28;;;6.73;38.72
67377;BME280;54261;46.086;6.588;2024-02-21T08:48:22;93100.91;;;4.44;43.13
67377;BME280;54261;46.086;6.588;2024-02-21T08:53:24;93117.84;;;5.83;41.73
67377;BME280;54261;46.086;6.588;2024-02-21T08:58:26;93107.91;;;6.94;39.98
67377;BME280;54261;46.086;6.588;2024-02-21T09:03:28;93106.16;;;7.14;39.91
67377;BME280;54261;46.086;6.588;2024-02-21T09:08:30;93100.25;;;6.82;39.83
67377;BME280;54261;46.086;6.588;2024-02-21T09:13:32;93105.69;;;5.51;41.48
67377;BME280;54261;46.086;6.588;2024-02-21T09:18:34;93112.31;;;6.75;39.86
67377;BME280;54261;46.086;6.588;2024-02-21T09:23:36;93105.22;;;3.28;46.92
67377;BME280;54261;46.086;6.588;2024-02-21T09:28:38;93100.31;;;2.71;49.03
67377;BME280;54261;46.086;6.588;2024-02-21T09:33:39;93088.56;;;2.95;47.03
67377;BME280;54261;46.086;6.588;2024-02-21T09:38:42;93095.19;;;3.99;45.13
67377;BME280;54261;46.086;6.588;2024-02-21T09:43:44;93094.28;;;4.57;43.72
67377;BME280;54261;46.086;6.588;2024-02-21T09:49:29;93112.22;;;3.45;48.27
67377;BME280;54261;46.086;6.588;2024-02-21T09:54:34;93113.56;;;5.87;42.86
67377;BME280;54261;46.086;6.588;2024-02-21T09:59:37;93124.81;;;3.70;47.02
67377;BME280;54261;46.086;6.588;2024-02-21T10:04:40;93059.97;;;4.61;44.71
67377;BME280;54261;46.086;6.588;2024-02-21T10:09:42;93088.69;;;7.27;40.32
67377;BME280;54261;46.086;6.588;2024-02-21T10:14:46;93096.97;;;3.83;45.15
67377;BME280;54261;46.086;6.588;2024-02-21T10:19:48;93111.66;;;2.12;50.10
67377;BME280;54261;46.086;6.588;2024-02-21T10:24:52;93061.97;;;1.97;48.25
67377;BME280;54261;46.086;6.588;2024-02-21T10:29:56;93117.94;;;4.53;45.22
67377;BME280;54261;46.086;6.588;2024-02-21T10:35:02;93105.41;;;1.73;49.33
67377;BME280;54261;46.086;6.588;2024-02-21T10:40:07;93114.09;;;1.69;49.11
67377;BME280;54261;46.086;6.588;2024-02-21T10:45:09;93075.28;;;2.29;47.54
67377;BME280;54261;46.086;6.588;2024-02-21T10:50:19;93012.75;;;2.56;46.74
67377;BME280;54261;46.086;6.588;2024-02-21T10:55:28;93084.44;;;4.42;42.29
67377;BME280;54261;46.086;6.588;2024-02-21T11:00:34;93061.84;;;4.34;42.46
67377;BME280;54261;46.086;6.588;2024-02-21T11:05:37;93070.06;;;4.64;41.39
67377;BME280;54261;46.086;6.588;2024-02-21T11:10:39;93055.66;;;6.88;39.25
67377;BME280;54261;46.086;6.588;2024-02-21T11:15:43;93046.94;;;5.87;41.50
67377;BME280;54261;46.086;6.588;2024-02-21T11:20:49;93031.56;;;3.51;45.58
67377;BME280;54261;46.086;6.588;2024-02-21T11:31:11;93005.03;;;9.38;37.28
67377;BME280;54261;46.086;6.588;2024-02-21T11:36:24;92996.22;;;11.21;35.19
67377;BME280;54261;46.086;6.588;2024-02-21T11:41:26;92965.59;;;11.31;33.90
67377;BME280;54261;46.086;6.588;2024-02-21T11:46:28;92959.25;;;11.67;33.01
67377;BME280;54261;46.086;6.588;2024-02-21T11:51:30;92948.25;;;12.48;31.63
67377;BME280;54261;46.086;6.588;2024-02-21T11:56:32;92933.97;;;11.77;30.47
67377;BME280;54261;46.086;6.588;2024-02-21T12:01:34;92935.38;;;12.80;30.76
67377;BME280;54261;46.086;6.588;2024-02-21T12:06:36;92923.41;;;13.85;29.96
67377;BME280;54261;46.086;6.588;2024-02-21T12:11:38;92896.19;;;13.09;29.03
67377;BME280;54261;46.086;6.588;2024-02-21T12:16:40;92898.47;;;12.90;29.62
67377;BME280;54261;46.086;6.588;2024-02-21T12:21:43;92889.72;;;10.94;32.28
67377;BME280;54261;46.086;6.588;2024-02-21T12:26:46;92868.97;;;7.27;38.54
67377;BME280;54261;46.086;6.588;2024-02-21T12:31:48;92875.13;;;8.37;35.73
67377;BME280;54261;46.086;6.588;2024-02-21T12:36:51;92871.94;;;7.63;37.38
67377;BME280;54261;46.086;6.588;2024-02-21T12:41:53;92858.56;;;7.83;36.25
67377;BME280;54261;46.086;6.588;2024-02-21T12:46:55;92864.91;;;8.39;34.90
67377;BME280;54261;46.086;6.588;2024-02-21T12:51:57;92844.56;;;9.13;34.64
67377;BME280;54261;46.086;6.588;2024-02-21T12:56:59;92836.75;;;11.17;32.23
67377;BME280;54261;46.086;6.588;2024-02-21T13:02:05;92831.91;;;10.01;33.36
67377;BME280;54261;46.086;6.588;2024-02-21T13:07:07;92823.72;;;8.96;32.90
67377;BME280;54261;46.086;6.588;2024-02-21T13:12:09;92809.63;;;11.89;29.79
67377;BME280;54261;46.086;6.588;2024-02-21T13:17:11;92801.94;;;10.22;31.42
67377;BME280;54261;46.086;6.588;2024-02-21T13:22:13;92791.44;;;11.42;31.60
67377;BME280;54261;46.086;6.588;2024-02-21T13:27:15;92780.97;;;12.67;29.32
67377;BME280;54261;46.086;6.588;2024-02-21T13:32:17;92765.53;;;11.64;29.79
67377;BME280;54261;46.086;6.588;2024-02-21T13:37:19;92742.09;;;8.57;34.84
67377;BME280;54261;46.086;6.588;2024-02-21T13:42:21;92749.41;;;9.75;32.88
67377;BME280;54261;46.086;6.588;2024-02-21T13:47:23;92728.06;;;9.39;32.55
67377;BME280;54261;46.086;6.588;2024-02-21T13:52:25;92730.19;;;8.63;33.84
67377;BME280;54261;46.086;6.588;2024-02-21T13:57:30;92721.13;;;10.64;30.79
67377;BME280;54261;46.086;6.588;2024-02-21T14:02:31;92716.78;;;10.86;29.66
67377;BME280;54261;46.086;6.588;2024-02-21T14:07:34;92693.78;;;12.21;28.28
67377;BME280;54261;46.086;6.588;2024-02-21T14:12:36;92665.94;;;11.51;28.60
67377;BME280;54261;46.086;6.588;2024-02-21T14:17:39;92680.28;;;11.64;28.17
67377;BME280;54261;46.086;6.588;2024-02-21T14:22:41;92670.72;;;10.35;30.07
67377;BME280;54261;46.086;6.588;2024-02-21T14:27:43;92663.03;;;12.61;28.54
67377;BME280;54261;46.086;6.588;2024-02-21T14:32:45;92638.47;;;13.68;27.45
67377;BME280;54261;46.086;6.588;2024-02-21T14:37:48;92621.56;;;14.30;27.11
67377;BME280;54261;46.086;6.588;2024-02-21T14:42:50;92631.22;;;14.44;27.16
67377;BME280;54261;46.086;6.588;2024-02-21T14:47:54;92625.00;;;14.93;27.17
67377;BME280;54261;46.086;6.588;2024-02-21T14:52:57;92622.97;;;12.08;28.70
67377;BME280;54261;46.086;6.588;2024-02-21T14:57:59;92595.19;;;11.77;29.92
67377;BME280;54261;46.086;6.588;2024-02-21T15:03:01;92615.63;;;10.28;31.99
67377;BME280;54261;46.086;6.588;2024-02-21T15:08:03;92613.84;;;8.24;34.93
67377;BME280;54261;46.086;6.588;2024-02-21T15:13:05;92628.63;;;8.07;35.25
67377;BME280;54261;46.086;6.588;2024-02-21T15:18:07;92637.72;;;10.25;32.75
67377;BME280;54261;46.086;6.588;2024-02-21T15:23:09;92653.28;;;10.72;30.85
67377;BME280;54261;46.086;6.588;2024-02-21T15:28:12;92646.06;;;11.35;30.36
67377;BME280;54261;46.086;6.588;2024-02-21T15:33:14;92638.94;;;12.64;28.87
67377;BME280;54261;46.086;6.588;2024-02-21T15:38:16;92641.13;;;10.84;30.59
67377;BME280;54261;46.086;6.588;2024-02-21T15:43:18;92627.78;;;12.75;29.11
67377;BME280;54261;46.086;6.588;2024-02-21T15:48:20;92628.47;;;13.14;28.37
67377;BME280;54261;46.086;6.588;2024-02-21T15:53:27;92617.16;;;13.54;28.11
67377;BME280;54261;46.086;6.588;2024-02-21T15:58:29;92614.09;;;13.90;27.50
67377;BME280;54261;46.086;6.588;2024-02-21T16:03:33;92619.50;;;13.90;27.87
67377;BME280;54261;46.086;6.588;2024-02-21T16:08:35;92614.22;;;13.93;27.26
67377;BME280;54261;46.086;6.588;2024-02-21T16:13:38;92627.03;;;13.50;26.00
67377;BME280;54261;46.086;6.588;2024-02-21T16:18:40;92595.44;;;13.72;26.26
67377;BME280;54261;46.086;6.588;2024-02-21T16:23:42;92615.22;;;13.89;26.20
67377;BME280;54261;46.086;6.588;2024-02-21T16:28:44;92597.34;;;13.84;25.82
67377;BME280;54261;46.086;6.588;2024-02-21T16:33:46;92582.28;;;13.83;25.99
67377;BME280;54261;46.086;6.588;2024-02-21T16:38:52;92618.28;;;13.53;27.14
67377;BME280;54261;46.086;6.588;2024-02-21T16:43:55;92605.94;;;13.52;26.53
67377;BME280;54261;46.086;6.588;2024-02-21T16:48:57;92594.50;;;13.22;27.05
67377;BME280;54261;46.086;6.588;2024-02-21T16:54:01;92558.34;;;12.89;29.46
67377;BME280;54261;46.086;6.588;2024-02-21T16:59:09;92554.38;;;12.65;29.01
67377;BME280;54261;46.086;6.588;2024-02-21T17:04:14;92567.66;;;12.92;28.57
67377;BME280;54261;46.086;6.588;2024-02-21T17:09:16;92512.22;;;12.27;28.83
67377;BME280;54261;46.086;6.588;2024-02-21T17:14:19;92455.78;;;10.71;28.60
67377;BME280;54261;46.086;6.588;2024-02-21T17:19:21;92545.78;;;11.60;29.22
67377;BME280;54261;46.086;6.588;2024-02-21T17:24:24;92514.59;;;11.68;28.92
67377;BME280;54261;46.086;6.588;2024-02-21T17:29:26;92549.25;;;11.91;28.47
67377;BME280;54261;46.086;6.588;2024-02-21T17:34:30;92546.78;;;11.47;27.47
67377;BME280;54261;46.086;6.588;2024-02-21T17:39:33;92534.66;;;10.97;26.72
67377;BME280;54261;46.086;6.588;2024-02-21T17:44:36;92538.31;;;11.18;26.15
67377;BME280;54261;46.086;6.588;2024-02-21T17:49:43;92519.78;;;9.13;30.15
67377;BME280;54261;46.086;6.588;2024-02-21T17:54:48;92504.97;;;8.38;29.52
67377;BME280;54261;46.086;6.588;2024-02-21T17:59:50;92503.69;;;9.35;27.24
67377;BME280;54261;46.086;6.588;2024-02-21T18:04:52;92509.84;;;8.59;28.62
67377;BME280;54261;46.086;6.588;2024-02-21T18:09:54;92521.25;;;9.19;27.78
67377;BME280;54261;46.086;6.588;2024-02-21T18:14:56;92514.75;;;8.88;27.75
67377;BME280;54261;46.086;6.588;2024-02-21T18:20:01;92512.47;;;9.68;27.57
67377;BME280;54261;46.086;6.588;2024-02-21T18:25:06;92518.66;;;7.72;32.80
67377;BME280;54261;46.086;6.588;2024-02-21T18:30:11;92526.16;;;10.24;30.23
67377;BME280;54261;46.086;6.588;2024-02-21T18:35:13;92493.38;;;11.37;28.83
67377;BME280;54261;46.086;6.588;2024-02-21T18:40:16;92505.06;;;10.31;29.36
67377;BME280;54261;46.086;6.588;2024-02-21T18:45:19;92497.97;;;11.27;27.24
67377;BME280;54261;46.086;6.588;2024-02-21T18:50:20;92491.78;;;10.53;28.28
67377;BME280;54261;46.086;6.588;2024-02-21T18:55:23;92439.22;;;9.99;26.52
67377;BME280;54261;46.086;6.588;2024-02-21T19:00:25;92477.72;;;10.56;26.48
67377;BME280;54261;46.086;6.588;2024-02-21T19:05:27;92499.41;;;9.26;30.37
67377;BME280;54261;46.086;6.588;2024-02-21T19:10:29;92470.78;;;11.68;27.78
67377;BME280;54261;46.086;6.588;2024-02-21T19:15:31;92488.34;;;12.47;26.37
67377;BME280;54261;46.086;6.588;2024-02-21T19:20:34;92467.94;;;12.03;27.09
67377;BME280;54261;46.086;6.588;2024-02-21T19:25:36;92474.53;;;12.69;27.02
67377;BME280;54261;46.086;6.588;2024-02-21T19:30:40;92458.91;;;12.63;27.16
67377;BME280;54261;46.086;6.588;2024-02-21T19:35:43;92454.09;;;12.68;27.29
67377;BME280;54261;46.086;6.588;2024-02-21T19:40:45;92481.03;;;13.02;26.82
67377;BME280;54261;46.086;6.588;2024-02-21T19:45:49;92483.66;;;13.11;26.48
67377;BME280;54261;46.086;6.588;2024-02-21T19:50:53;92392.72;;;12.49;26.59
67377;BME280;54261;46.086;6.588;2024-02-21T19:55:55;92388.94;;;12.41;26.76
67377;BME280;54261;46.086;6.588;2024-02-21T20:00:57;92420.38;;;12.50;27.15
67377;BME280;54261;46.086;6.588;2024-02-21T20:05:59;92414.06;;;12.33;27.47
67377;BME280;54261;46.086;6.588;2024-02-21T20:11:02;92438.88;;;11.96;27.37
67377;BME280;54261;46.086;6.588;2024-02-21T20:16:07;92413.72;;;11.02;28.05
67377;BME280;54261;46.086;6.588;2024-02-21T20:21:09;92450.22;;;12.02;27.51
67377;BME280;54261;46.086;6.588;2024-02-21T20:26:11;92452.75;;;12.41;27.26
67377;BME280;54261;46.086;6.588;2024-02-21T20:31:13;92454.00;;;12.65;27.49
67377;BME280;54261;46.086;6.588;2024-02-21T20:36:21;92441.56;;;12.72;26.99
67377;BME280;54261;46.086;6.588;2024-02-21T20:41:22;92372.81;;;12.41;26.49
67377;BME280;54261;46.086;6.588;2024-02-21T20:46:24;92448.03;;;12.93;26.05
67377;BME280;54261;46.086;6.588;2024-02-21T20:51:26;92445.94;;;12.98;26.60
67377;BME280;54261;46.086;6.588;2024-02-21T20:56:28;92435.94;;;13.11;26.51
67377;BME280;54261;46.086;6.588;2024-02-21T21:01:30;92431.94;;;13.18;26.55
67377;BME280;54261;46.086;6.588;2024-02-21T21:06:33;92429.78;;;13.11;26.58
67377;BME280;54261;46.086;6.588;2024-02-21T21:11:36;92415.84;;;12.75;26.59
67377;BME280;54261;46.086;6.588;2024-02-21T21:16:47;92422.59;;;13.03;26.31
67377;BME280;54261;46.086;6.588;2024-02-21T21:21:49;92409.66;;;12.96;26.38
67377;BME280;54261;46.086;6.588;2024-02-21T21:26:54;92412.47;;;12.99;26.24
67377;BME280;54261;46.086;6.588;2024-02-21T21:31:56;92414.28;;;13.08;26.60
67377;BME280;54261;46.086;6.588;2024-02-21T21:36:58;92356.34;;;12.09;26.48
67377;BME280;54261;46.086;6.588;2024-02-21T21:42:00;92405.16;;;12.54;26.60
67377;BME280;54261;46.086;6.588;2024-02-21T21:47:07;92378.09;;;12.38;26.60
67377;BME280;54261;46.086;6.588;2024-02-21T21:52:09;92394.84;;;12.56;26.57
67377;BME280;54261;46.086;6.588;2024-02-21T21:57:12;92380.19;;;11.38;27.67
67377;BME280;54261;46.086;6.588;2024-02-21T22:02:13;92398.91;;;10.78;28.55
67377;BME280;54261;46.086;6.588;2024-02-21T22:07:15;92398.41;;;11.63;27.83
67377;BME280;54261;46.086;6.588;2024-02-21T22:12:17;92375.34;;;11.83;27.54
67377;BME280;54261;46.086;6.588;2024-02-21T22:17:19;92393.41;;;12.04;27.50
67377;BME280;54261;46.086;6.588;2024-02-21T22:22:21;92392.69;;;10.39;29.78
67377;BME280;54261;46.086;6.588;2024-02-21T22:27:23;92376.66;;;11.25;28.60
67377;BME280;54261;46.086;6.588;2024-02-21T22:32:26;92394.78;;;11.58;28.04
67377;BME280;54261;46.086;6.588;2024-02-21T22:37:28;92408.00;;;11.72;27.84
67377;BME280;54261;46.086;6.588;2024-02-21T22:42:30;92399.69;;;12.29;27.71
67377;BME280;54261;46.086;6.588;2024-02-21T22:47:31;92387.38;;;11.25;29.12
67377;BME280;54261;46.086;6.588;2024-02-21T22:52:33;92397.47;;;9.22;32.13
67377;BME280;54261;46.086;6.588;2024-02-21T22:57:36;92379.78;;;10.14;30.56
67377;BME280;54261;46.086;6.588;2024-02-21T23:02:44;92392.25;;;10.28;30.73
67377;BME280;54261;46.086;6.588;2024-02-21T23:07:46;92375.47;;;11.05;29.48
67377;BME280;54261;46.086;6.588;2024-02-21T23:12:51;92376.44;;;11.30;29.08
67377;BME280;54261;46.086;6.588;2024-02-21T23:17:54;92369.69;;;10.11;30.59
67377;BME280;54261;46.086;6.588;2024-02-21T23:22:56;92352.59;;;10.90;29.99
67377;BME280;54261;46.086;6.588;2024-02-21T23:27:58;92353.38;;;10.52;30.58
67377;BME280;54261;46.086;6.588;2024-02-21T23:33:00;92314.81;;;11.04;30.13
67377;BME280;54261;46.086;6.588;2024-02-21T23:38:04;92348.19;;;11.54;29.88
67377;BME280;54261;46.086;6.588;2024-02-21T23:43:08;92309.47;;;10.65;30.89
67377;BME280;54261;46.086;6.588;2024-02-21T23:48:10;92333.38;;;8.76;33.15
67377;BME280;54261;46.086;6.588;2024-02-21T23:53:14;92325.44;;;10.53;30.89
67377;BME280;54261;46.086;6.588;2024-02-21T23:58:16;92321.47;;;10.59;30.40
